createdAt,value
2019-03-17T00:00:35.238Z,99.30
2019-03-17T00:03:04.914Z,99.40
2019-03-17T00:05:35.806Z,99.70
2019-03-17T00:08:05.520Z,99.90
2019-03-17T00:10:35.303Z,99.90
2019-03-17T00:13:05.090Z,99.90
2019-03-17T00:15:34.795Z,99.90
2019-03-17T00:18:04.443Z,99.90
2019-03-17T00:20:34.165Z,99.90
2019-03-17T00:23:04.329Z,99.90
2019-03-17T00:25:34.015Z,99.90
2019-03-17T00:28:07.342Z,99.90
2019-03-17T00:30:37.030Z,99.90
2019-03-17T00:33:06.787Z,99.90
2019-03-17T00:35:36.416Z,99.90
2019-03-17T00:38:06.073Z,99.90
2019-03-17T00:40:35.691Z,99.90
2019-03-17T00:43:05.362Z,99.90
2019-03-17T00:45:36.285Z,99.90
2019-03-17T00:48:05.902Z,99.90
2019-03-17T00:50:35.539Z,99.90
2019-03-17T00:53:05.230Z,99.90
2019-03-17T00:55:34.866Z,99.90
2019-03-17T00:58:04.503Z,99.90
2019-03-17T01:00:34.260Z,99.90
2019-03-17T01:03:03.899Z,99.90
2019-03-17T01:05:33.523Z,99.90
2019-03-17T01:08:03.194Z,99.90
2019-03-17T01:10:34.098Z,99.90
2019-03-17T01:13:03.699Z,99.90
2019-03-17T01:15:33.327Z,99.90
2019-03-17T01:18:03.050Z,99.90
2019-03-17T01:20:32.673Z,99.90
2019-03-17T01:23:02.272Z,99.90
2019-03-17T01:25:32.017Z,99.90
2019-03-17T01:28:01.672Z,99.90
2019-03-17T01:30:31.316Z,99.90
2019-03-17T01:33:00.948Z,99.90
2019-03-17T01:35:32.682Z,99.90
2019-03-17T01:38:00.278Z,99.90
2019-03-17T01:40:29.886Z,99.90
2019-03-17T01:43:00.714Z,99.90
2019-03-17T01:45:31.582Z,99.90
2019-03-17T01:48:01.314Z,99.90
2019-03-17T01:50:30.923Z,99.90
2019-03-17T01:53:00.688Z,99.90
2019-03-17T01:55:30.313Z,99.90
2019-03-17T01:57:59.922Z,99.90
2019-03-17T02:00:29.578Z,99.90
2019-03-17T02:02:59.257Z,99.90
2019-03-17T02:05:28.906Z,99.90
2019-03-17T02:07:58.538Z,99.90
2019-03-17T02:10:28.150Z,99.90
2019-03-17T02:12:57.790Z,99.90
2019-03-17T02:15:27.393Z,99.90
2019-03-17T02:17:57.039Z,99.90
2019-03-17T02:20:26.668Z,99.90
2019-03-17T02:22:56.277Z,99.90
2019-03-17T02:25:25.939Z,99.90
2019-03-17T02:27:55.581Z,99.90
2019-03-17T02:30:25.202Z,99.90
2019-03-17T02:32:54.874Z,99.90
2019-03-17T02:35:37.743Z,99.90
2019-03-17T02:37:55.420Z,99.90
2019-03-17T02:40:25.183Z,99.90
2019-03-17T02:42:54.853Z,99.90
2019-03-17T02:45:24.469Z,99.90
2019-03-17T02:47:54.149Z,99.90
2019-03-17T02:50:23.826Z,99.90
2019-03-17T02:52:53.439Z,99.90
2019-03-17T02:55:23.027Z,99.90
2019-03-17T02:57:52.681Z,99.90
2019-03-17T03:00:22.320Z,99.90
2019-03-17T03:02:51.942Z,99.90
2019-03-17T03:05:21.614Z,99.90
2019-03-17T03:07:51.321Z,99.90
2019-03-17T03:10:22.210Z,99.90
2019-03-17T03:12:51.884Z,99.90
2019-03-17T03:15:21.549Z,99.90
2019-03-17T03:17:51.204Z,99.90
2019-03-17T03:20:22.171Z,99.90
2019-03-17T03:22:51.803Z,99.90
2019-03-17T03:25:21.480Z,99.90
2019-03-17T03:27:51.095Z,99.90
2019-03-17T03:30:20.819Z,99.90
2019-03-17T03:32:50.483Z,99.90
2019-03-17T03:35:20.177Z,99.90
2019-03-17T03:37:49.806Z,99.90
2019-03-17T03:40:21.995Z,99.90
2019-03-17T03:42:51.636Z,99.90
2019-03-17T03:45:21.276Z,99.90
2019-03-17T03:47:50.960Z,99.90
2019-03-17T03:50:20.601Z,99.90
2019-03-17T03:52:50.284Z,99.90
2019-03-17T03:55:19.931Z,99.90
2019-03-17T03:57:49.551Z,99.90
2019-03-17T04:00:19.254Z,99.90
2019-03-17T04:02:48.886Z,99.90
2019-03-17T04:05:18.523Z,99.90
2019-03-17T04:07:48.193Z,99.90
2019-03-17T04:10:17.831Z,99.90
2019-03-17T04:12:47.526Z,99.90
2019-03-17T04:15:17.272Z,99.90
2019-03-17T04:17:46.953Z,99.90
2019-03-17T04:20:16.613Z,99.90
2019-03-17T04:22:46.224Z,99.90
2019-03-17T04:25:17.530Z,99.90
2019-03-17T04:27:47.157Z,99.90
2019-03-17T04:30:16.775Z,99.90
2019-03-17T04:32:46.422Z,99.90
2019-03-17T04:35:16.071Z,99.90
2019-03-17T04:37:45.711Z,99.90
2019-03-17T04:40:16.654Z,99.90
2019-03-17T04:42:46.266Z,99.90
2019-03-17T04:45:15.881Z,99.90
2019-03-17T04:47:45.546Z,99.90
2019-03-17T04:50:15.188Z,99.90
2019-03-17T04:52:44.813Z,99.90
2019-03-17T04:55:16.977Z,99.90
2019-03-17T04:57:47.818Z,99.90
2019-03-17T05:00:17.443Z,99.90
2019-03-17T05:02:48.334Z,99.90
2019-03-17T05:05:17.941Z,99.90
2019-03-17T05:07:47.567Z,99.90
2019-03-17T05:10:17.288Z,99.90
2019-03-17T05:12:46.979Z,99.90
2019-03-17T05:15:16.626Z,99.90
2019-03-17T05:17:46.248Z,99.90
2019-03-17T05:20:15.881Z,99.90
2019-03-17T05:22:45.593Z,99.90
2019-03-17T05:25:15.211Z,99.90
2019-03-17T05:27:44.838Z,99.90
2019-03-17T05:30:14.492Z,99.90
2019-03-17T05:32:44.133Z,99.90
2019-03-17T05:35:16.123Z,99.90
2019-03-17T05:37:45.786Z,99.90
2019-03-17T05:40:15.413Z,99.90
2019-03-17T05:42:45.038Z,99.90
2019-03-17T05:45:14.719Z,99.90
2019-03-17T05:47:44.369Z,99.90
2019-03-17T05:50:14.026Z,99.90
2019-03-17T05:52:43.659Z,99.90
2019-03-17T05:55:13.305Z,99.90
2019-03-17T05:57:42.949Z,99.90
2019-03-17T06:00:12.898Z,99.90
2019-03-17T06:02:43.758Z,99.90
2019-03-17T06:05:13.525Z,99.90
2019-03-17T06:07:43.185Z,99.90
2019-03-17T06:10:12.831Z,99.90
2019-03-17T06:12:42.590Z,99.90
2019-03-17T06:15:12.184Z,99.90
2019-03-17T06:17:41.819Z,99.90
2019-03-17T06:20:11.606Z,99.90
2019-03-17T06:22:43.655Z,99.90
2019-03-17T06:25:13.395Z,99.90
2019-03-17T06:27:43.135Z,99.90
2019-03-17T06:30:12.848Z,99.90
2019-03-17T06:32:42.578Z,99.90
2019-03-17T06:35:13.765Z,99.90
2019-03-17T06:37:43.418Z,99.90
2019-03-17T06:40:13.079Z,99.90
2019-03-17T06:42:44.059Z,99.90
2019-03-17T06:45:13.700Z,99.90
2019-03-17T06:47:45.904Z,99.90
2019-03-17T06:50:15.594Z,99.90
2019-03-17T06:52:45.706Z,99.90
2019-03-17T06:55:15.365Z,99.90
2019-03-17T06:57:45.006Z,99.90
2019-03-17T07:00:14.824Z,99.90
2019-03-17T07:02:44.493Z,99.90
2019-03-17T07:05:14.171Z,99.90
2019-03-17T07:07:44.840Z,99.90
2019-03-17T07:10:13.550Z,99.90
2019-03-17T07:12:43.223Z,99.90
2019-03-17T07:15:12.886Z,99.90
2019-03-17T07:17:42.560Z,99.90
2019-03-17T07:20:12.254Z,99.90
2019-03-17T07:22:44.532Z,99.90
2019-03-17T07:25:14.145Z,99.90
2019-03-17T07:27:43.802Z,99.90
2019-03-17T07:30:13.487Z,99.80
2019-03-17T07:32:43.135Z,99.60
2019-03-17T07:35:12.811Z,99.50
2019-03-17T07:37:42.484Z,99.30
2019-03-17T07:40:12.151Z,99.10
2019-03-17T07:42:41.785Z,99.00
2019-03-17T07:45:13.006Z,98.80
2019-03-17T07:47:42.664Z,98.70
2019-03-17T07:50:12.390Z,98.20
2019-03-17T07:52:42.228Z,98.10
2019-03-17T07:55:11.899Z,97.70
2019-03-17T07:57:42.857Z,97.90
2019-03-17T08:00:12.502Z,97.60
2019-03-17T08:02:43.458Z,97.40
2019-03-17T08:05:13.081Z,97.40
2019-03-17T08:07:45.251Z,97.40
2019-03-17T08:10:14.900Z,97.40
2019-03-17T08:12:44.542Z,97.30
2019-03-17T08:15:15.523Z,97.40
2019-03-17T08:17:45.142Z,97.30
2019-03-17T08:20:14.801Z,97.20
2019-03-17T08:22:44.497Z,97.10
2019-03-17T08:25:14.119Z,97.00
2019-03-17T08:27:43.806Z,97.00
2019-03-17T08:30:13.559Z,96.80
2019-03-17T08:32:43.187Z,96.70
2019-03-17T08:35:12.884Z,96.40
2019-03-17T08:37:42.486Z,96.40
2019-03-17T08:40:12.423Z,96.10
2019-03-17T08:42:43.304Z,96.10
2019-03-17T08:45:12.955Z,96.20
2019-03-17T08:47:42.594Z,95.60
2019-03-17T08:50:13.453Z,95.80
2019-03-17T08:52:43.137Z,95.50
2019-03-17T08:55:12.807Z,96.10
2019-03-17T08:57:42.496Z,96.10
2019-03-17T09:00:13.573Z,95.50
2019-03-17T09:02:43.260Z,95.20
2019-03-17T09:05:12.969Z,96.30
2019-03-17T09:07:42.678Z,95.40
2019-03-17T09:10:12.330Z,94.90
2019-03-17T09:12:41.955Z,94.70
2019-03-17T09:15:13.199Z,94.60
2019-03-17T09:17:42.845Z,94.40
2019-03-17T09:20:12.535Z,94.30
2019-03-17T09:22:43.413Z,94.00
2019-03-17T09:25:13.044Z,93.70
2019-03-17T09:27:42.710Z,93.60
2019-03-17T09:30:13.984Z,93.40
2019-03-17T09:32:43.625Z,93.20
2019-03-17T09:35:14.536Z,92.50
2019-03-17T09:37:45.367Z,92.60
2019-03-17T09:40:15.034Z,92.20
2019-03-17T09:42:44.691Z,91.90
2019-03-17T09:45:16.331Z,91.70
2019-03-17T09:47:45.979Z,90.80
2019-03-17T09:50:15.663Z,90.30
2019-03-17T09:52:45.304Z,89.20
2019-03-17T09:55:14.986Z,88.80
2019-03-17T09:57:45.854Z,88.40
2019-03-17T10:00:15.510Z,88.60
2019-03-17T10:02:46.426Z,87.40
2019-03-17T10:05:16.126Z,87.10
2019-03-17T10:07:45.921Z,88.60
2019-03-17T10:10:15.569Z,89.20
2019-03-17T10:12:45.270Z,88.20
2019-03-17T10:15:16.159Z,86.60
2019-03-17T10:17:46.045Z,86.00
2019-03-17T10:20:15.686Z,85.40
2019-03-17T10:22:45.411Z,84.70
2019-03-17T10:25:17.523Z,83.40
2019-03-17T10:27:48.440Z,84.00
2019-03-17T10:30:18.218Z,83.40
2019-03-17T10:32:47.965Z,83.10
2019-03-17T10:35:17.679Z,82.80
2019-03-17T10:37:47.315Z,82.60
2019-03-17T10:40:17.003Z,82.30
2019-03-17T10:42:47.854Z,82.50
2019-03-17T10:45:17.501Z,81.90
2019-03-17T10:47:49.749Z,80.70
2019-03-17T10:50:19.384Z,80.00
2019-03-17T10:52:49.115Z,79.20
2019-03-17T10:55:20.020Z,79.80
2019-03-17T10:57:51.100Z,76.70
2019-03-17T11:00:22.105Z,74.20
2019-03-17T11:02:53.685Z,72.20
2019-03-17T11:05:24.701Z,69.50
2019-03-17T11:07:57.122Z,64.30
2019-03-17T11:10:27.421Z,55.90
2019-03-17T11:12:57.162Z,51.70
2019-03-17T11:15:27.956Z,51.40
2019-03-17T11:17:58.821Z,50.70
2019-03-17T11:20:28.586Z,48.50
2019-03-17T11:22:58.302Z,44.70
2019-03-17T11:25:28.007Z,42.80
2019-03-17T11:27:58.824Z,45.00
2019-03-17T11:30:28.813Z,44.00
2019-03-17T11:32:58.472Z,43.90
2019-03-17T11:35:28.144Z,42.00
2019-03-17T11:37:57.810Z,41.50
2019-03-17T11:40:27.457Z,42.70
2019-03-17T11:42:57.140Z,41.50
2019-03-17T11:45:27.969Z,42.10
2019-03-17T11:47:58.935Z,40.70
2019-03-17T11:50:31.100Z,40.30
2019-03-17T11:53:00.752Z,39.40
2019-03-17T11:55:31.875Z,39.30
2019-03-17T11:58:02.690Z,40.30
2019-03-17T12:00:32.466Z,39.70
2019-03-17T12:03:02.150Z,39.60
2019-03-17T12:05:31.865Z,42.20
2019-03-17T12:08:01.579Z,44.20
2019-03-17T12:10:31.291Z,46.50
2019-03-17T12:13:01.293Z,48.80
2019-03-17T12:15:30.980Z,50.80
2019-03-17T12:18:02.174Z,51.90
2019-03-17T12:20:31.893Z,53.40
2019-03-17T12:23:01.643Z,54.30
2019-03-17T12:25:32.821Z,54.60
2019-03-17T12:28:02.538Z,55.30
2019-03-17T12:30:32.199Z,55.90
2019-03-17T12:33:01.950Z,57.50
2019-03-17T12:35:31.625Z,58.10
2019-03-17T12:38:01.302Z,58.50
2019-03-17T12:40:31.158Z,58.60
2019-03-17T12:43:02.176Z,58.80
2019-03-17T12:45:33.045Z,59.40
2019-03-17T12:48:03.867Z,59.70
2019-03-17T12:50:33.639Z,59.80
2019-03-17T12:53:03.312Z,60.40
2019-03-17T12:55:34.047Z,60.50
2019-03-17T12:58:03.877Z,60.00
2019-03-17T13:00:33.532Z,59.10
2019-03-17T13:03:03.256Z,59.40
2019-03-17T13:05:34.262Z,60.20
2019-03-17T13:08:03.900Z,60.30
2019-03-17T13:10:34.810Z,60.20
2019-03-17T13:13:05.775Z,60.70
2019-03-17T13:15:38.015Z,61.40
2019-03-17T13:18:08.784Z,61.80
2019-03-17T13:20:39.643Z,63.00
2019-03-17T13:23:10.522Z,63.90
2019-03-17T13:25:42.792Z,64.60
2019-03-17T13:28:12.538Z,65.00
2019-03-17T13:30:42.186Z,65.70
2019-03-17T13:33:11.854Z,65.80
2019-03-17T13:35:41.512Z,65.90
2019-03-17T13:38:11.192Z,66.50
2019-03-17T13:40:42.294Z,67.50
2019-03-17T13:43:11.988Z,67.80
2019-03-17T13:45:41.851Z,68.30
2019-03-17T13:48:11.523Z,68.70
2019-03-17T13:50:41.331Z,68.10
2019-03-17T13:53:11.176Z,68.90
2019-03-17T13:55:40.855Z,69.50
2019-03-17T13:58:14.756Z,70.30
2019-03-17T14:00:47.018Z,70.50
2019-03-17T14:03:16.682Z,70.70
2019-03-17T14:05:46.765Z,71.80
2019-03-17T14:08:16.479Z,72.70
2019-03-17T14:10:46.243Z,73.70
2019-03-17T14:13:17.088Z,74.90
2019-03-17T14:15:46.703Z,76.30
2019-03-17T14:18:16.359Z,76.70
2019-03-17T14:20:47.412Z,78.30
2019-03-17T14:23:17.116Z,79.80
2019-03-17T14:25:47.112Z,81.30
2019-03-17T14:28:19.042Z,81.70
2019-03-17T14:30:51.206Z,82.60
2019-03-17T14:33:22.158Z,82.10
2019-03-17T14:35:51.839Z,82.50
2019-03-17T14:38:21.462Z,83.70
2019-03-17T14:40:54.676Z,84.00
2019-03-17T14:43:20.728Z,84.70
2019-03-17T14:45:50.400Z,85.60
2019-03-17T14:48:20.058Z,86.80
2019-03-17T14:50:49.686Z,87.80
2019-03-17T14:53:20.651Z,89.00
2019-03-17T14:55:50.288Z,90.20
2019-03-17T14:58:22.425Z,90.80
2019-03-17T15:00:52.074Z,91.20
2019-03-17T15:03:23.023Z,91.50
2019-03-17T15:05:52.684Z,91.90
2019-03-17T15:08:23.621Z,92.20
2019-03-17T15:11:04.992Z,92.50
2019-03-17T15:13:22.955Z,92.70
2019-03-17T15:16:02.719Z,92.90
2019-03-17T15:18:23.868Z,93.40
2019-03-17T15:20:53.548Z,93.10
2019-03-17T15:23:23.173Z,93.30
2019-03-17T15:25:52.867Z,93.40
2019-03-17T15:28:22.535Z,93.50
2019-03-17T15:31:09.718Z,93.30
2019-03-17T15:33:25.658Z,93.40
2019-03-17T15:35:55.454Z,93.50
2019-03-17T15:38:25.087Z,93.60
2019-03-17T15:40:54.749Z,93.80
2019-03-17T15:43:24.507Z,93.90
2019-03-17T15:45:54.131Z,94.00
2019-03-17T15:48:25.002Z,94.20
2019-03-17T15:50:54.644Z,94.20
2019-03-17T15:53:24.401Z,94.20
2019-03-17T15:55:56.553Z,94.30
2019-03-17T15:58:27.422Z,94.30
2019-03-17T16:00:57.062Z,94.30
2019-03-17T16:03:26.692Z,94.30
2019-03-17T16:05:57.595Z,94.30
2019-03-17T16:08:27.368Z,92.40
2019-03-17T16:10:58.242Z,91.50
2019-03-17T16:13:27.907Z,90.70
2019-03-17T16:15:58.848Z,91.00
2019-03-17T16:18:28.562Z,91.70
2019-03-17T16:20:59.432Z,92.30
2019-03-17T16:23:29.128Z,92.90
2019-03-17T16:25:58.788Z,93.50
2019-03-17T16:28:30.435Z,93.90
2019-03-17T16:31:00.166Z,94.20
2019-03-17T16:33:29.931Z,94.50
2019-03-17T16:36:02.082Z,94.90
2019-03-17T16:38:32.225Z,95.30
2019-03-17T16:41:01.862Z,95.60
2019-03-17T16:43:32.842Z,95.90
2019-03-17T16:46:02.561Z,96.30
2019-03-17T16:48:32.345Z,96.40
2019-03-17T16:51:04.527Z,96.60
2019-03-17T16:53:34.215Z,96.50
2019-03-17T16:56:03.859Z,96.60
2019-03-17T16:58:33.687Z,96.60
2019-03-17T17:01:05.844Z,96.70
2019-03-17T17:03:36.721Z,96.70
2019-03-17T17:06:06.320Z,96.70
2019-03-17T17:08:35.960Z,96.80
2019-03-17T17:11:05.571Z,96.90
2019-03-17T17:13:37.651Z,97.00
2019-03-17T17:16:07.356Z,96.90
2019-03-17T17:18:38.196Z,97.00
2019-03-17T17:21:10.648Z,97.10
2019-03-17T17:23:40.432Z,97.10
2019-03-17T17:26:10.112Z,97.20
2019-03-17T17:28:42.280Z,97.30
2019-03-17T17:31:12.202Z,97.40
2019-03-17T17:33:44.454Z,97.40
2019-03-17T17:36:15.414Z,97.50
2019-03-17T17:38:46.254Z,97.50
2019-03-17T17:41:15.914Z,97.60
2019-03-17T17:43:45.586Z,97.50
2019-03-17T17:46:15.383Z,97.60
2019-03-17T17:48:44.994Z,97.60
2019-03-17T17:51:15.782Z,97.70
2019-03-17T17:53:47.976Z,97.80
2019-03-17T17:56:17.605Z,98.10
2019-03-17T17:58:48.510Z,98.00
2019-03-17T18:01:18.146Z,98.00
2019-03-17T18:03:51.925Z,98.10
2019-03-17T18:06:17.477Z,98.00
2019-03-17T18:08:47.228Z,98.10
2019-03-17T18:11:16.851Z,98.10
2019-03-17T18:13:50.147Z,98.00
2019-03-17T18:16:19.898Z,98.20
2019-03-17T18:18:49.562Z,98.00
2019-03-17T18:21:20.498Z,98.10
2019-03-17T18:23:50.203Z,98.10
2019-03-17T18:26:23.107Z,98.10
2019-03-17T18:28:52.800Z,98.10
2019-03-17T18:31:22.466Z,98.20
2019-03-17T18:33:52.960Z,98.00
2019-03-17T18:36:24.943Z,98.20
2019-03-17T18:38:55.859Z,98.20
2019-03-17T18:41:25.926Z,98.30
2019-03-17T18:43:55.673Z,98.40
2019-03-17T18:46:26.586Z,98.40
2019-03-17T18:48:56.638Z,98.40
2019-03-17T18:51:26.434Z,98.50
2019-03-17T18:53:56.169Z,98.20
2019-03-17T18:56:25.798Z,98.50
2019-03-17T18:58:57.555Z,98.60
2019-03-17T19:01:27.369Z,98.50
2019-03-17T19:03:57.089Z,98.50
2019-03-17T19:06:26.985Z,98.60
2019-03-17T19:08:58.049Z,98.60
2019-03-17T19:11:29.938Z,98.50
2019-03-17T19:13:59.899Z,98.50
2019-03-17T19:16:31.035Z,98.50
2019-03-17T19:19:00.686Z,98.50
2019-03-17T19:21:30.326Z,98.60
2019-03-17T19:24:01.265Z,98.50
2019-03-17T19:26:30.928Z,98.30
2019-03-17T19:29:00.596Z,98.40
2019-03-17T19:31:31.514Z,98.50
2019-03-17T19:34:01.158Z,98.50
2019-03-17T19:36:31.527Z,98.50
2019-03-17T19:39:01.158Z,98.50
2019-03-17T19:41:31.008Z,98.50
2019-03-17T19:44:01.230Z,98.70
2019-03-17T19:46:30.904Z,98.70
2019-03-17T19:49:02.143Z,98.70
2019-03-17T19:51:32.501Z,98.60
2019-03-17T19:54:01.442Z,98.60
2019-03-17T19:56:32.413Z,98.60
2019-03-17T19:59:02.080Z,98.70
2019-03-17T20:01:31.723Z,98.70
2019-03-17T20:04:01.397Z,98.70
2019-03-17T20:06:31.339Z,98.70
2019-03-17T20:09:01.054Z,98.80
2019-03-17T20:11:31.351Z,98.90
2019-03-17T20:14:01.138Z,98.90
2019-03-17T20:16:32.154Z,99.20
2019-03-17T20:19:06.728Z,99.30
2019-03-17T20:21:38.940Z,99.40
2019-03-17T20:24:08.573Z,99.70
2019-03-17T20:26:38.195Z,99.60
2019-03-17T20:29:09.109Z,99.70
2019-03-17T20:31:38.730Z,99.60
2019-03-17T20:34:08.359Z,99.50
2019-03-17T20:36:39.198Z,99.40
2019-03-17T20:39:08.857Z,99.40
2019-03-17T20:41:38.475Z,99.50
2019-03-17T20:44:08.130Z,99.50
2019-03-17T20:46:37.759Z,99.40
2019-03-17T20:49:07.369Z,99.40
2019-03-17T20:51:36.986Z,99.50
2019-03-17T20:54:06.632Z,99.20
2019-03-17T20:56:36.330Z,99.20
2019-03-17T20:59:05.964Z,99.20
2019-03-17T21:01:38.161Z,99.20
2019-03-17T21:04:08.008Z,99.20
2019-03-17T21:06:37.793Z,99.20
2019-03-17T21:09:08.260Z,99.10
2019-03-17T21:11:37.982Z,99.10
2019-03-17T21:14:07.627Z,99.10
2019-03-17T21:16:38.561Z,99.00
2019-03-17T21:19:11.968Z,98.90
2019-03-17T21:21:41.626Z,98.90
2019-03-17T21:24:11.324Z,99.70
2019-03-17T21:26:40.925Z,99.90
2019-03-17T21:29:11.934Z,99.80
2019-03-17T21:31:41.618Z,99.40
2019-03-17T21:34:11.850Z,99.50
2019-03-17T21:36:44.092Z,98.40
2019-03-17T21:39:14.009Z,98.30
2019-03-17T21:41:43.739Z,98.50
2019-03-17T21:44:15.080Z,98.40
2019-03-17T21:46:45.878Z,98.30
2019-03-17T21:49:15.643Z,98.40
2019-03-17T21:51:48.039Z,98.40
2019-03-17T21:54:17.706Z,98.40
2019-03-17T21:56:47.523Z,98.50
2019-03-17T21:59:17.228Z,98.40
2019-03-17T22:01:46.928Z,98.50
2019-03-17T22:04:16.602Z,98.50
2019-03-17T22:06:46.381Z,98.80
2019-03-17T22:09:17.410Z,98.50
2019-03-17T22:11:47.379Z,98.50
2019-03-17T22:14:17.136Z,98.40
2019-03-17T22:16:46.963Z,98.50
2019-03-17T22:19:16.812Z,98.60
2019-03-17T22:21:46.718Z,98.60
2019-03-17T22:24:16.780Z,98.60
2019-03-17T22:26:46.704Z,98.40
2019-03-17T22:29:16.477Z,98.50
2019-03-17T22:31:48.352Z,98.60
2019-03-17T22:34:18.149Z,98.50
2019-03-17T22:36:47.948Z,98.50
2019-03-17T22:39:19.073Z,98.50
2019-03-17T22:41:48.858Z,98.70
2019-03-17T22:44:24.747Z,99.00
2019-03-17T22:46:49.867Z,98.70
2019-03-17T22:49:19.594Z,98.90
2019-03-17T22:51:49.311Z,98.90
2019-03-17T22:54:29.849Z,98.80
2019-03-17T22:57:00.843Z,98.70
2019-03-17T22:59:31.792Z,98.80
2019-03-17T23:02:02.185Z,98.80
2019-03-17T23:04:31.879Z,98.80
2019-03-17T23:07:02.887Z,98.80
2019-03-17T23:09:32.500Z,98.90
2019-03-17T23:12:02.100Z,98.80
2019-03-17T23:14:37.009Z,98.70
2019-03-17T23:17:02.530Z,98.60
2019-03-17T23:19:34.681Z,98.60
2019-03-17T23:22:04.292Z,98.60
2019-03-17T23:24:33.899Z,98.40
2019-03-17T23:27:11.377Z,98.70
2019-03-17T23:29:41.005Z,98.80
2019-03-17T23:32:13.254Z,98.60
2019-03-17T23:34:42.907Z,98.70
2019-03-17T23:37:12.634Z,98.70
2019-03-17T23:39:42.239Z,98.70
2019-03-17T23:42:11.850Z,98.60
2019-03-17T23:44:48.945Z,98.50
2019-03-17T23:47:13.016Z,98.50
2019-03-17T23:49:42.661Z,98.40
2019-03-17T23:52:12.276Z,98.30
2019-03-17T23:54:41.994Z,98.30
2019-03-17T23:57:12.598Z,98.20
2019-03-17T23:59:42.342Z,98.00
